createdAt,value
2023-05-10T00:00:52.964Z,14.23
2023-05-10T00:03:20.076Z,15.50
2023-05-10T00:05:49.260Z,14.80
2023-05-10T00:08:16.790Z,15.97
2023-05-10T00:10:46.053Z,14.97
2023-05-10T00:13:19.109Z,14.90
2023-05-10T00:15:48.515Z,15.00
2023-05-10T00:18:18.700Z,15.40
2023-05-10T00:20:49.855Z,15.43
2023-05-10T00:23:20.048Z,14.67
2023-05-10T00:25:48.064Z,12.77
2023-05-10T00:28:18.176Z,13.47
2023-05-10T00:30:48.179Z,14.53
2023-05-10T00:33:18.308Z,11.73
2023-05-10T00:35:48.535Z,12.27
2023-05-10T00:38:15.667Z,11.33
2023-05-10T00:40:42.672Z,9.90
2023-05-10T00:43:09.950Z,9.30
2023-05-10T00:45:41.086Z,11.10
2023-05-10T00:48:08.261Z,10.37
2023-05-10T00:50:35.927Z,9.90
2023-05-10T00:53:06.151Z,10.00
2023-05-10T00:55:34.318Z,10.40
2023-05-10T00:58:01.418Z,10.00
2023-05-10T01:00:30.973Z,11.13
2023-05-10T01:03:00.075Z,9.90
2023-05-10T01:05:30.528Z,10.63
2023-05-10T01:08:00.728Z,10.53
2023-05-10T01:10:27.761Z,9.90
2023-05-10T01:12:55.163Z,8.60
2023-05-10T01:15:23.073Z,9.67
2023-05-10T01:17:51.613Z,8.50
2023-05-10T01:20:18.926Z,8.93
2023-05-10T01:23:11.233Z,8.30
2023-05-10T01:26:08.597Z,8.30
2023-05-10T01:28:54.515Z,8.20
2023-05-10T01:31:40.846Z,7.37
2023-05-10T01:34:16.343Z,7.67
2023-05-10T01:36:55.008Z,9.77
2023-05-10T01:39:47.761Z,12.03
2023-05-10T01:42:29.954Z,11.57
2023-05-10T01:45:09.071Z,11.57
2023-05-10T01:47:44.377Z,10.83
2023-05-10T01:50:19.320Z,10.90
2023-05-10T01:52:52.676Z,11.00
2023-05-10T01:55:22.050Z,11.30
2023-05-10T01:57:55.887Z,10.50
2023-05-10T02:00:24.622Z,11.40
2023-05-10T02:02:55.456Z,11.13
2023-05-10T02:05:24.046Z,10.77
2023-05-10T02:07:54.327Z,9.57
2023-05-10T02:10:23.411Z,9.53
2023-05-10T02:12:54.533Z,10.40
2023-05-10T02:15:25.951Z,10.47
2023-05-10T02:17:57.645Z,10.30
2023-05-10T02:20:28.581Z,10.57
2023-05-10T02:22:58.798Z,10.53
2023-05-10T02:25:27.311Z,10.50
2023-05-10T02:27:58.002Z,8.67
2023-05-10T02:30:29.131Z,8.40
2023-05-10T02:32:58.323Z,7.80
2023-05-10T02:35:37.360Z,8.00
2023-05-10T02:38:06.082Z,8.87
2023-05-10T02:40:37.711Z,8.83
2023-05-10T02:43:07.947Z,9.40
2023-05-10T02:45:40.029Z,11.00
2023-05-10T02:48:09.230Z,11.57
2023-05-10T02:50:40.479Z,9.17
2023-05-10T02:53:23.505Z,8.67
2023-05-10T02:55:53.552Z,8.00
2023-05-10T02:58:20.645Z,7.13
2023-05-10T03:00:50.829Z,8.00
2023-05-10T03:03:18.890Z,8.23
2023-05-10T03:05:45.870Z,9.90
2023-05-10T03:08:13.148Z,10.57
2023-05-10T03:11:06.503Z,9.27
2023-05-10T03:13:46.711Z,8.27
2023-05-10T03:16:20.808Z,9.07
2023-05-10T03:19:08.079Z,9.27
2023-05-10T03:21:39.279Z,9.53
2023-05-10T03:24:17.767Z,8.87
2023-05-10T03:26:52.619Z,7.63
2023-05-10T03:29:27.412Z,7.67
2023-05-10T03:31:59.091Z,8.23
2023-05-10T03:34:31.747Z,7.50
2023-05-10T03:37:01.931Z,7.57
2023-05-10T03:39:31.939Z,8.77
2023-05-10T03:41:59.000Z,9.97
2023-05-10T03:44:28.042Z,9.20
2023-05-10T03:46:58.558Z,8.87
2023-05-10T03:49:25.553Z,9.23
2023-05-10T03:51:53.858Z,9.97
2023-05-10T03:54:22.890Z,9.90
2023-05-10T03:56:50.900Z,10.17
2023-05-10T03:59:21.104Z,10.47
2023-05-10T04:01:50.643Z,7.97
2023-05-10T04:04:19.905Z,8.77
2023-05-10T04:06:50.547Z,8.37
2023-05-10T04:09:19.583Z,8.13
2023-05-10T04:11:46.648Z,8.03
2023-05-10T04:14:14.711Z,8.53
2023-05-10T04:16:41.767Z,7.90
2023-05-10T04:19:10.898Z,8.83
2023-05-10T04:21:37.897Z,7.87
2023-05-10T04:24:05.101Z,8.27
2023-05-10T04:26:35.190Z,8.00
2023-05-10T04:29:03.579Z,7.57
2023-05-10T04:31:30.763Z,8.00
2023-05-10T04:33:58.799Z,6.80
2023-05-10T04:36:25.794Z,8.43
2023-05-10T04:38:54.794Z,7.80
2023-05-10T04:41:25.892Z,7.97
2023-05-10T04:43:53.943Z,7.80
2023-05-10T04:46:22.082Z,7.10
2023-05-10T04:48:50.183Z,7.50
2023-05-10T04:51:19.180Z,7.53
2023-05-10T04:54:01.599Z,7.20
2023-05-10T04:56:34.864Z,7.23
2023-05-10T04:59:04.949Z,6.40
2023-05-10T05:01:35.121Z,5.53
2023-05-10T05:04:03.554Z,5.70
2023-05-10T05:06:31.575Z,5.20
2023-05-10T05:08:58.588Z,5.20
2023-05-10T05:11:27.058Z,4.77
2023-05-10T05:13:54.198Z,5.23
2023-05-10T05:16:21.205Z,4.30
2023-05-10T05:18:48.215Z,3.50
2023-05-10T05:21:20.632Z,3.80
2023-05-10T05:23:49.679Z,4.10
2023-05-10T05:26:17.076Z,3.87
2023-05-10T05:28:47.142Z,3.83
2023-05-10T05:31:17.159Z,3.67
2023-05-10T05:33:47.785Z,4.03
2023-05-10T05:36:16.842Z,4.37
2023-05-10T05:38:44.164Z,3.73
2023-05-10T05:41:11.208Z,4.07
2023-05-10T05:43:41.318Z,4.03
2023-05-10T05:46:11.481Z,3.97
2023-05-10T05:48:38.477Z,4.30
2023-05-10T05:51:07.286Z,4.07
2023-05-10T05:53:35.535Z,4.10
2023-05-10T05:56:05.793Z,4.43
2023-05-10T05:58:35.980Z,4.30
2023-05-10T06:01:02.978Z,3.43
2023-05-10T06:03:31.149Z,4.00
2023-05-10T06:05:58.277Z,4.03
2023-05-10T06:08:27.245Z,3.80
2023-05-10T06:10:55.680Z,3.73
2023-05-10T06:13:23.832Z,4.20
2023-05-10T06:15:52.900Z,4.43
2023-05-10T06:18:20.028Z,4.77
2023-05-10T06:20:50.314Z,4.83
2023-05-10T06:23:19.380Z,5.00
2023-05-10T06:25:46.441Z,5.03
2023-05-10T06:28:13.366Z,4.77
2023-05-10T06:30:42.363Z,5.20
2023-05-10T06:33:12.502Z,5.23
2023-05-10T06:35:41.666Z,4.77
2023-05-10T06:38:08.806Z,4.30
2023-05-10T06:40:37.810Z,4.67
2023-05-10T06:43:07.835Z,4.63
2023-05-10T06:45:35.032Z,3.83
2023-05-10T06:48:04.324Z,3.57
2023-05-10T06:50:31.495Z,3.60
2023-05-10T06:53:01.385Z,2.80
2023-05-10T06:55:28.517Z,2.87
2023-05-10T06:57:56.772Z,2.90
2023-05-10T07:00:23.958Z,2.23
2023-05-10T07:02:53.082Z,2.90
2023-05-10T07:05:23.705Z,2.63
2023-05-10T07:07:53.819Z,2.50
2023-05-10T07:10:22.910Z,3.10
2023-05-10T07:12:50.198Z,2.80
2023-05-10T07:15:18.945Z,2.80
2023-05-10T07:17:46.605Z,3.10
2023-05-10T07:20:14.952Z,3.30
2023-05-10T07:22:42.032Z,2.93
2023-05-10T07:25:09.268Z,2.63
2023-05-10T07:27:39.521Z,3.13
2023-05-10T07:30:10.032Z,3.00
2023-05-10T07:32:40.574Z,3.03
2023-05-10T07:35:10.892Z,3.43
2023-05-10T07:37:37.868Z,3.50
2023-05-10T07:40:08.482Z,4.80
2023-05-10T07:42:39.281Z,4.83
2023-05-10T07:45:09.604Z,5.67
2023-05-10T07:47:36.602Z,4.83
2023-05-10T07:50:06.106Z,4.00
2023-05-10T07:52:36.201Z,4.80
2023-05-10T07:55:08.376Z,4.43
2023-05-10T07:57:36.046Z,5.03
2023-05-10T08:00:04.655Z,5.60
2023-05-10T08:02:36.407Z,6.53
2023-05-10T08:05:06.459Z,5.80
2023-05-10T08:07:34.662Z,5.27
2023-05-10T08:10:05.454Z,5.60
2023-05-10T08:12:34.479Z,5.00
2023-05-10T08:15:01.679Z,4.53
2023-05-10T08:17:28.641Z,4.43
2023-05-10T08:19:58.785Z,4.77
2023-05-10T08:22:27.116Z,4.77
2023-05-10T08:24:56.153Z,4.40
2023-05-10T08:27:26.264Z,4.30
2023-05-10T08:29:56.422Z,5.23
2023-05-10T08:32:23.523Z,5.37
2023-05-10T08:34:52.493Z,4.97
2023-05-10T08:37:23.669Z,5.20
2023-05-10T08:39:51.657Z,5.17
2023-05-10T08:42:26.934Z,4.47
2023-05-10T08:44:56.136Z,5.57
2023-05-10T08:47:23.496Z,6.07
2023-05-10T08:49:53.713Z,8.70
2023-05-10T08:52:22.842Z,7.80
2023-05-10T08:54:50.542Z,9.43
2023-05-10T08:57:21.036Z,8.00
2023-05-10T08:59:48.394Z,7.90
2023-05-10T09:02:23.183Z,8.13
2023-05-10T09:04:52.396Z,7.90
2023-05-10T09:07:22.674Z,6.80
2023-05-10T09:09:52.268Z,6.47
2023-05-10T09:12:19.375Z,6.37
2023-05-10T09:14:47.544Z,5.93
2023-05-10T09:17:14.838Z,6.20
2023-05-10T09:19:42.072Z,6.03
2023-05-10T09:22:12.251Z,6.77
2023-05-10T09:24:46.221Z,6.23
2023-05-10T09:27:16.214Z,6.70
2023-05-10T09:29:46.293Z,7.13
2023-05-10T09:32:16.116Z,6.53
2023-05-10T09:34:46.996Z,7.47
2023-05-10T09:37:15.430Z,8.70
2023-05-10T09:39:45.464Z,7.70
2023-05-10T09:42:13.566Z,7.53
2023-05-10T09:44:44.542Z,6.67
2023-05-10T09:47:11.551Z,6.20
2023-05-10T09:49:43.120Z,6.00
2023-05-10T09:52:13.189Z,5.67
2023-05-10T09:54:53.865Z,5.83
2023-05-10T09:57:27.134Z,6.20
2023-05-10T09:59:55.509Z,6.20
2023-05-10T10:02:29.168Z,5.70
2023-05-10T10:04:56.858Z,5.93
2023-05-10T10:07:26.651Z,5.40
2023-05-10T10:09:56.840Z,5.70
2023-05-10T10:12:30.014Z,4.97
2023-05-10T10:15:00.745Z,6.70
2023-05-10T10:17:29.298Z,5.27
2023-05-10T10:19:58.531Z,5.40
2023-05-10T10:22:26.860Z,6.00
2023-05-10T10:24:56.521Z,6.27
2023-05-10T10:27:42.516Z,4.83
2023-05-10T10:30:18.779Z,5.77
2023-05-10T10:33:10.126Z,5.33
2023-05-10T10:35:46.780Z,5.53
2023-05-10T10:38:23.871Z,4.80
2023-05-10T10:41:27.695Z,5.13
2023-05-10T10:44:35.207Z,5.57
2023-05-10T10:47:24.446Z,7.23
2023-05-10T10:50:09.277Z,4.87
2023-05-10T10:52:46.675Z,5.00
2023-05-10T10:55:24.712Z,4.70
2023-05-10T10:57:53.391Z,5.13
2023-05-10T11:00:25.463Z,4.60
2023-05-10T11:03:07.814Z,5.20
2023-05-10T11:05:37.508Z,5.10
2023-05-10T11:08:18.659Z,5.53
2023-05-10T11:10:54.923Z,5.43
2023-05-10T11:13:51.443Z,6.63
2023-05-10T11:16:26.533Z,6.30
2023-05-10T11:19:04.139Z,6.90
2023-05-10T11:21:34.632Z,6.80
2023-05-10T11:24:14.929Z,6.50
2023-05-10T11:26:44.458Z,7.10
2023-05-10T11:29:17.507Z,7.07
2023-05-10T11:31:48.640Z,7.07
2023-05-10T11:34:31.573Z,7.73
2023-05-10T11:36:59.699Z,6.93
2023-05-10T11:39:35.954Z,7.40
2023-05-10T11:42:03.234Z,7.33
2023-05-10T11:44:34.785Z,7.07
2023-05-10T11:47:04.405Z,5.80
2023-05-10T11:49:34.661Z,5.63
2023-05-10T11:52:10.043Z,5.03
2023-05-10T11:54:39.253Z,5.53
2023-05-10T11:57:06.465Z,5.93
2023-05-10T11:59:34.513Z,5.50
2023-05-10T12:02:02.746Z,5.13
2023-05-10T12:04:33.522Z,5.67
2023-05-10T12:07:01.902Z,5.37
2023-05-10T12:09:43.137Z,4.80
2023-05-10T12:12:21.556Z,4.13
2023-05-10T12:14:51.917Z,5.27
2023-05-10T12:17:19.068Z,4.77
2023-05-10T12:19:48.325Z,4.20
2023-05-10T12:22:15.556Z,3.50
2023-05-10T12:24:42.529Z,4.17
2023-05-10T12:27:10.368Z,4.57
2023-05-10T12:29:45.690Z,4.30
2023-05-10T12:32:12.734Z,3.70
2023-05-10T12:34:41.934Z,4.20
2023-05-10T12:37:09.143Z,3.93
2023-05-10T12:39:47.316Z,3.17
2023-05-10T12:42:17.677Z,3.97
2023-05-10T12:44:47.842Z,3.77
2023-05-10T12:47:14.794Z,4.67
2023-05-10T12:49:42.828Z,5.40
2023-05-10T12:52:09.811Z,4.30
2023-05-10T12:54:38.863Z,3.47
2023-05-10T12:57:08.925Z,3.73
2023-05-10T12:59:38.150Z,3.97
2023-05-10T13:02:09.552Z,4.40
2023-05-10T13:04:40.834Z,4.00
2023-05-10T13:07:11.433Z,3.77
2023-05-10T13:09:39.489Z,3.53
2023-05-10T13:12:10.243Z,3.77
2023-05-10T13:14:38.538Z,3.47
2023-05-10T13:17:11.539Z,3.20
2023-05-10T13:19:40.658Z,3.50
2023-05-10T13:22:09.005Z,3.53
2023-05-10T13:24:36.004Z,3.10
2023-05-10T13:27:04.103Z,3.63
2023-05-10T13:29:32.527Z,3.23
2023-05-10T13:32:00.899Z,3.60
2023-05-10T13:34:29.171Z,4.13
2023-05-10T13:36:58.349Z,3.50
2023-05-10T13:39:26.347Z,3.43
2023-05-10T13:42:02.570Z,3.90
2023-05-10T13:44:30.770Z,3.87
2023-05-10T13:47:00.724Z,6.33
2023-05-10T13:49:28.190Z,4.70
2023-05-10T13:51:55.223Z,3.53
2023-05-10T13:54:30.535Z,3.60
2023-05-10T13:56:58.757Z,3.53
2023-05-10T13:59:26.831Z,3.27
2023-05-10T14:01:54.958Z,3.67
2023-05-10T14:04:24.063Z,3.30
2023-05-10T14:06:53.771Z,3.60
2023-05-10T14:09:22.929Z,2.97
2023-05-10T14:11:52.185Z,3.37
2023-05-10T14:14:19.195Z,4.17
2023-05-10T14:16:46.516Z,3.73
2023-05-10T14:19:15.683Z,3.33
2023-05-10T14:21:45.777Z,4.27
2023-05-10T14:24:13.014Z,3.63
2023-05-10T14:26:43.326Z,3.70
2023-05-10T14:29:12.754Z,3.80
2023-05-10T14:31:40.069Z,3.60
2023-05-10T14:34:09.152Z,3.53
2023-05-10T14:36:37.158Z,3.87
2023-05-10T14:39:04.527Z,3.50
2023-05-10T14:41:32.081Z,3.87
2023-05-10T14:43:59.059Z,4.30
2023-05-10T14:46:26.237Z,3.63
2023-05-10T14:48:54.245Z,3.57
2023-05-10T14:51:24.256Z,3.50
2023-05-10T14:53:54.355Z,4.37
2023-05-10T14:56:23.139Z,3.77
2023-05-10T14:58:53.256Z,4.30
2023-05-10T15:01:22.942Z,3.87
2023-05-10T15:03:50.458Z,3.37
2023-05-10T15:06:26.394Z,3.63
2023-05-10T15:08:56.481Z,4.07
2023-05-10T15:11:23.556Z,3.63
2023-05-10T15:13:53.867Z,4.20
2023-05-10T15:16:22.211Z,3.60
2023-05-10T15:18:49.812Z,3.87
2023-05-10T15:21:16.894Z,3.37
2023-05-10T15:23:45.952Z,3.60
2023-05-10T15:26:13.980Z,4.00
2023-05-10T15:28:42.133Z,4.47
2023-05-10T15:31:09.206Z,3.87
2023-05-10T15:33:38.391Z,3.57
2023-05-10T15:36:15.572Z,4.07
2023-05-10T15:38:43.508Z,4.23
2023-05-10T15:41:13.826Z,3.83
2023-05-10T15:43:44.194Z,4.20
2023-05-10T15:46:11.220Z,4.00
2023-05-10T15:48:40.338Z,4.27
2023-05-10T15:51:09.307Z,4.00
2023-05-10T15:53:36.416Z,4.03
2023-05-10T15:56:07.066Z,3.30
2023-05-10T15:58:36.414Z,3.67
2023-05-10T16:01:06.861Z,3.00
2023-05-10T16:03:36.746Z,3.97
2023-05-10T16:06:07.697Z,3.57
2023-05-10T16:08:36.127Z,3.70
2023-05-10T16:11:07.490Z,4.00
2023-05-10T16:13:36.582Z,3.77
2023-05-10T16:16:08.940Z,4.10
2023-05-10T16:18:36.594Z,4.00
2023-05-10T16:21:04.901Z,4.20
2023-05-10T16:23:34.333Z,2.97
2023-05-10T16:26:02.366Z,3.30
2023-05-10T16:28:31.384Z,4.20
2023-05-10T16:31:01.571Z,3.43
2023-05-10T16:33:28.608Z,3.67
2023-05-10T16:35:58.691Z,3.50
2023-05-10T16:38:25.785Z,2.93
2023-05-10T16:40:53.097Z,3.13
2023-05-10T16:43:24.010Z,3.47
2023-05-10T16:45:52.356Z,3.13
2023-05-10T16:48:19.451Z,3.67
2023-05-10T16:50:48.519Z,3.97
2023-05-10T16:53:18.534Z,4.23
2023-05-10T16:55:46.503Z,3.50
2023-05-10T16:58:16.913Z,4.00
2023-05-10T17:00:46.986Z,3.80
2023-05-10T17:03:17.183Z,4.23
2023-05-10T17:05:50.202Z,4.40
2023-05-10T17:08:17.487Z,4.47
2023-05-10T17:10:45.502Z,4.80
2023-05-10T17:13:12.704Z,4.40
2023-05-10T17:15:39.991Z,4.47
2023-05-10T17:18:10.629Z,3.67
2023-05-10T17:20:37.824Z,4.10
2023-05-10T17:23:04.855Z,4.87
2023-05-10T17:25:31.987Z,3.93
2023-05-10T17:27:59.013Z,3.70
2023-05-10T17:30:28.290Z,3.33
2023-05-10T17:32:55.430Z,3.73
2023-05-10T17:35:22.422Z,3.17
2023-05-10T17:37:49.564Z,2.83
2023-05-10T17:40:18.264Z,3.50
2023-05-10T17:42:45.580Z,3.73
2023-05-10T17:45:12.587Z,3.50
2023-05-10T17:47:40.651Z,3.63
2023-05-10T17:50:08.081Z,3.63
2023-05-10T17:52:38.231Z,3.23
2023-05-10T17:55:07.672Z,3.20
2023-05-10T17:57:34.920Z,3.10
2023-05-10T18:00:06.473Z,3.67
2023-05-10T18:02:36.935Z,3.30
2023-05-10T18:05:07.506Z,3.97
2023-05-10T18:07:36.183Z,4.27
2023-05-10T18:10:07.255Z,3.50
2023-05-10T18:12:37.310Z,3.90
2023-05-10T18:15:07.760Z,3.50
2023-05-10T18:17:35.120Z,4.13
2023-05-10T18:20:02.371Z,3.40
2023-05-10T18:22:31.338Z,4.17
2023-05-10T18:24:59.429Z,3.87
2023-05-10T18:27:29.718Z,3.10
2023-05-10T18:29:57.082Z,3.83
2023-05-10T18:32:24.389Z,3.17
2023-05-10T18:34:52.140Z,3.37
2023-05-10T18:37:20.163Z,3.73
2023-05-10T18:39:47.144Z,3.53
2023-05-10T18:42:14.109Z,3.83
2023-05-10T18:44:41.071Z,2.80
2023-05-10T18:47:08.359Z,3.30
2023-05-10T18:49:35.383Z,3.00
2023-05-10T18:52:02.374Z,3.40
2023-05-10T18:54:30.105Z,3.40
2023-05-10T18:56:58.985Z,3.27
2023-05-10T18:59:27.817Z,3.30
2023-05-10T19:01:56.507Z,3.53
2023-05-10T19:04:24.460Z,3.27
2023-05-10T19:06:51.658Z,3.50
2023-05-10T19:09:20.276Z,3.33
2023-05-10T19:11:47.616Z,2.97
2023-05-10T19:14:14.764Z,2.77
2023-05-10T19:16:43.489Z,3.27
2023-05-10T19:19:10.813Z,3.77
2023-05-10T19:21:39.022Z,3.60
2023-05-10T19:24:06.283Z,3.27
2023-05-10T19:26:34.482Z,3.43
2023-05-10T19:29:02.382Z,3.33
2023-05-10T19:31:29.450Z,3.30
2023-05-10T19:33:58.049Z,3.37
2023-05-10T19:36:27.555Z,3.40
2023-05-10T19:38:54.479Z,3.33
2023-05-10T19:41:22.107Z,3.10
2023-05-10T19:43:49.205Z,2.73
2023-05-10T19:46:17.882Z,3.20
2023-05-10T19:48:51.054Z,3.67
2023-05-10T19:51:19.045Z,2.70
2023-05-10T19:53:46.169Z,2.80
2023-05-10T19:56:14.361Z,3.13
2023-05-10T19:58:41.429Z,2.90
2023-05-10T20:01:08.455Z,2.70
2023-05-10T20:03:36.285Z,2.07
2023-05-10T20:06:04.244Z,2.50
2023-05-10T20:08:31.536Z,2.83
2023-05-10T20:11:00.749Z,2.70
2023-05-10T20:13:27.793Z,2.67
2023-05-10T20:15:59.588Z,2.93
2023-05-10T20:18:27.370Z,2.50
2023-05-10T20:20:59.564Z,2.27
2023-05-10T20:23:26.746Z,2.77
2023-05-10T20:25:54.906Z,3.07
2023-05-10T20:28:26.391Z,2.70
2023-05-10T20:30:54.945Z,3.40
2023-05-10T20:33:22.878Z,2.33
2023-05-10T20:35:51.499Z,3.17
2023-05-10T20:38:18.649Z,3.23
2023-05-10T20:40:46.620Z,2.43
2023-05-10T20:43:13.613Z,2.77
2023-05-10T20:45:40.692Z,2.57
2023-05-10T20:48:08.388Z,2.27
2023-05-10T20:50:35.642Z,2.67
2023-05-10T20:53:02.960Z,3.13
2023-05-10T20:55:29.930Z,2.27
2023-05-10T20:57:56.967Z,2.47
2023-05-10T21:00:23.936Z,3.77
2023-05-10T21:02:50.940Z,3.07
2023-05-10T21:05:18.905Z,2.80
2023-05-10T21:07:46.016Z,2.83
2023-05-10T21:10:13.041Z,3.50
2023-05-10T21:12:40.026Z,3.40
2023-05-10T21:15:07.937Z,3.77
2023-05-10T21:17:34.997Z,3.00
2023-05-10T21:20:01.961Z,2.93
2023-05-10T21:22:28.991Z,3.40
2023-05-10T21:24:55.925Z,3.17
2023-05-10T21:27:22.923Z,3.67
2023-05-10T21:29:49.908Z,3.30
2023-05-10T21:32:16.853Z,3.53
2023-05-10T21:34:43.801Z,3.07
2023-05-10T21:37:10.807Z,3.27
2023-05-10T21:39:37.749Z,4.07
2023-05-10T21:42:04.884Z,4.07
2023-05-10T21:44:32.207Z,4.47
2023-05-10T21:46:59.216Z,4.47
2023-05-10T21:49:26.604Z,4.80
2023-05-10T21:51:53.586Z,4.30
2023-05-10T21:54:20.643Z,3.87
2023-05-10T21:56:47.763Z,4.10
2023-05-10T21:59:14.728Z,4.13
2023-05-10T22:01:43.865Z,4.37
2023-05-10T22:04:11.334Z,4.80
2023-05-10T22:06:38.459Z,4.53
2023-05-10T22:09:05.502Z,4.07
2023-05-10T22:11:32.447Z,4.80
2023-05-10T22:13:59.560Z,3.93
2023-05-10T22:16:26.971Z,4.90
2023-05-10T22:18:55.058Z,5.50
2023-05-10T22:21:22.184Z,5.37
2023-05-10T22:23:49.098Z,5.43
2023-05-10T22:26:16.135Z,4.70
2023-05-10T22:28:43.064Z,3.90
2023-05-10T22:31:11.617Z,3.97
2023-05-10T22:33:38.907Z,4.37
2023-05-10T22:36:06.794Z,4.97
2023-05-10T22:38:33.966Z,4.33
2023-05-10T22:41:01.122Z,4.27
2023-05-10T22:43:28.151Z,4.60
2023-05-10T22:45:55.083Z,4.50
2023-05-10T22:48:22.249Z,4.17
2023-05-10T22:50:49.193Z,3.90
2023-05-10T22:53:16.575Z,4.60
2023-05-10T22:55:43.638Z,4.27
2023-05-10T22:58:10.839Z,4.67
2023-05-10T23:00:38.381Z,4.23
2023-05-10T23:03:06.898Z,4.20
2023-05-10T23:05:33.939Z,5.10
2023-05-10T23:08:00.917Z,5.20
2023-05-10T23:10:27.979Z,4.30
2023-05-10T23:12:56.220Z,4.93
2023-05-10T23:15:23.218Z,4.90
2023-05-10T23:17:50.427Z,4.30
2023-05-10T23:20:17.648Z,4.67
2023-05-10T23:22:45.253Z,4.60
2023-05-10T23:25:12.158Z,4.70
2023-05-10T23:27:39.507Z,4.17
2023-05-10T23:30:07.266Z,5.17
2023-05-10T23:32:34.239Z,5.30
2023-05-10T23:35:01.400Z,5.37
2023-05-10T23:37:28.381Z,4.80
2023-05-10T23:39:55.478Z,5.13
2023-05-10T23:42:22.518Z,4.37
2023-05-10T23:44:50.936Z,5.50
2023-05-10T23:47:18.084Z,5.20
2023-05-10T23:49:45.052Z,4.50
2023-05-10T23:52:12.124Z,5.53
2023-05-10T23:54:39.279Z,4.13
2023-05-10T23:57:06.258Z,4.63
2023-05-10T23:59:33.236Z,4.87
